Time;durP1;ratioP1;P1;durP2;ratioP2;P2;SDS_P1;SDS_P2;PMS_P1;PMS_P2;Temp;Humidity;BMP_temperature;BMP_pressure;BME280_temperature;BME280_humidity;BME280_pressure;Samples;Min_cycle;Max_cycle;Signal;HPM_P1;HPM_P2
2022/10/09 00:00:42;;;;;;;21.67;19.33;;;27.30;74.10;;;;;;5142949;27;20462;-66
2022/10/09 00:03:15;;;;;;;20.80;18.07;;;27.30;73.40;;;;;;5144012;27;20900;-66
2022/10/09 00:05:47;;;;;;;22.17;19.63;;;27.20;74.60;;;;;;5111256;27;20448;-67
2022/10/09 00:08:17;;;;;;;23.43;19.40;;;27.20;75.00;;;;;;5143467;27;20522;-67
2022/10/09 00:10:48;;;;;;;22.13;19.50;;;27.10;76.70;;;;;;5143681;27;20448;-66
2022/10/09 00:13:19;;;;;;;19.90;17.80;;;26.90;77.10;;;;;;5142851;27;20446;-66
2022/10/09 00:15:52;;;;;;;24.77;19.53;;;26.80;78.50;;;;;;5111592;27;20475;-66
2022/10/09 00:18:22;;;;;;;23.27;20.87;;;26.70;77.60;;;;;;5143421;27;20474;-66
2022/10/09 00:20:53;;;;;;;24.30;21.57;;;26.50;79.50;;;;;;5143758;27;20467;-66
2022/10/09 00:23:24;;;;;;;22.80;20.40;;;26.40;79.40;;;;;;5143998;27;20466;-66
2022/10/09 00:25:57;;;;;;;25.87;20.93;;;26.40;79.20;;;;;;5135949;27;20866;-66
2022/10/09 00:28:29;;;;;;;23.27;20.70;;;26.40;77.70;;;;;;5142667;27;20485;-66
2022/10/09 00:31:08;;;;;;;25.47;21.67;;;26.30;76.50;;;;;;5142792;27;20550;-66
2022/10/09 00:33:39;;;;;;;22.60;20.20;;;26.30;77.50;;;;;;5143348;27;20459;-66
2022/10/09 00:36:12;;;;;;;23.27;20.80;;;26.10;80.10;;;;;;5143115;27;20456;-66
2022/10/09 00:38:43;;;;;;;25.93;21.70;;;26.00;79.40;;;;;;5142597;27;20494;-67
2022/10/09 00:41:17;;;;;;;30.67;21.43;;;26.00;79.80;;;;;;5142046;27;20486;-66
2022/10/09 00:43:50;;;;;;;27.60;23.47;;;25.90;78.80;;;;;;5143137;27;20445;-66
2022/10/09 00:46:35;;;;;;;25.67;22.87;;;25.90;79.40;;;;;;5142852;27;21003;-66
2022/10/09 00:49:13;;;;;;;26.57;23.57;;;25.90;78.70;;;;;;5130574;27;20544;-66
2022/10/09 00:51:46;;;;;;;26.00;22.13;;;25.90;78.70;;;;;;5143267;27;20447;-66
2022/10/09 00:54:21;;;;;;;27.10;22.77;;;25.90;79.10;;;;;;5143453;27;20455;-66
2022/10/09 00:56:52;;;;;;;29.17;24.53;;;25.70;80.80;;;;;;5129814;27;20819;-66
2022/10/09 00:59:24;;;;;;;25.43;22.83;;;25.70;80.00;;;;;;5119721;28;20504;-66
2022/10/09 01:01:56;;;;;;;27.40;23.60;;;25.60;81.00;;;;;;5122158;27;20487;-65
2022/10/09 01:04:27;;;;;;;25.90;23.10;;;25.50;82.10;;;;;;5132158;28;20873;-66
2022/10/09 01:07:11;;;;;;;26.50;23.67;;;25.40;81.90;;;;;;5125575;28;20524;-65
2022/10/09 01:09:48;;;;;;;27.10;22.80;;;25.30;83.50;;;;;;5136450;27;20490;-65
2022/10/09 01:12:26;;;;;;;28.87;24.00;;;25.10;84.10;;;;;;5108438;27;20539;-65
2022/10/09 01:15:04;;;;;;;25.90;23.20;;;25.10;83.10;;;;;;5126110;28;20486;-65
2022/10/09 01:17:42;;;;;;;28.20;21.83;;;25.00;84.40;;;;;;5121929;28;20453;-67
2022/10/09 01:20:31;;;;;;;25.80;23.00;;;24.90;85.70;;;;;;5117146;28;21007;-66
2022/10/09 01:23:19;;;;;;;29.60;22.77;;;24.70;86.30;;;;;;5115710;28;20496;-65
2022/10/09 01:26:06;;;;;;;27.10;22.80;;;24.60;87.50;;;;;;5117927;28;20494;-68
2022/10/09 01:28:42;;;;;;;27.73;23.17;;;24.40;88.30;;;;;;5117187;28;20496;-67
2022/10/09 01:31:14;;;;;;;24.60;21.47;;;24.30;89.80;;;;;;5141610;27;20447;-67
2022/10/09 01:33:47;;;;;;;25.53;22.77;;;24.10;90.30;;;;;;5117479;27;20531;-69
2022/10/09 01:36:19;;;;;;;29.10;23.80;;;23.90;90.50;;;;;;5139099;28;20525;-68
2022/10/09 01:38:50;;;;;;;24.90;21.97;;;23.80;90.80;;;;;;5137627;27;20479;-68
2022/10/09 01:41:21;;;;;;;27.00;23.03;;;23.60;91.20;;;;;;5117790;27;20470;-67
2022/10/09 01:43:54;;;;;;;26.47;21.40;;;23.50;91.80;;;;;;5131101;27;20528;-66
2022/10/09 01:46:26;;;;;;;25.80;22.97;;;23.30;92.30;;;;;;5119821;27;20465;-67
2022/10/09 01:49:06;;;;;;;30.07;24.97;;;23.20;92.60;;;;;;5131366;27;21601;-68
2022/10/09 01:51:44;;;;;;;26.77;22.70;;;23.10;93.30;;;;;;5135443;27;20762;-67
2022/10/09 01:54:20;;;;;;;32.63;24.33;;;22.90;93.50;;;;;;5141639;27;20497;-67
2022/10/09 01:56:54;;;;;;;29.03;24.43;;;22.80;94.00;;;;;;5112982;27;20455;-69
2022/10/09 01:59:28;;;;;;;28.07;23.20;;;22.70;94.50;;;;;;5110733;27;21306;-67
2022/10/09 02:02:01;;;;;;;27.47;22.03;;;22.60;95.00;;;;;;5130113;27;20564;-68
2022/10/09 02:04:33;;;;;;;25.00;21.93;;;22.40;95.50;;;;;;5124259;27;20470;-68
2022/10/09 02:07:04;;;;;;;25.20;22.00;;;22.40;96.10;;;;;;5129302;27;20480;-68
2022/10/09 02:09:35;;;;;;;28.10;23.37;;;22.30;96.60;;;;;;5129327;27;20472;-69
2022/10/09 02:12:12;;;;;;;28.83;22.43;;;22.30;97.00;;;;;;5140961;27;20472;-68
2022/10/09 02:14:44;;;;;;;29.43;23.93;;;22.10;97.50;;;;;;5131876;27;20509;-68
2022/10/09 02:17:19;;;;;;;28.67;23.20;;;22.00;98.10;;;;;;5133233;27;20461;-68
2022/10/09 02:19:52;;;;;;;24.87;22.17;;;21.90;99.00;;;;;;5115242;27;20505;-68
2022/10/09 02:22:26;;;;;;;26.77;23.10;;;21.80;99.30;;;;;;5145474;27;20569;-66
2022/10/09 02:24:58;;;;;;;24.90;22.20;;;21.70;99.80;;;;;;5140202;27;20445;-68
2022/10/09 02:27:29;;;;;;;28.70;23.37;;;21.70;99.90;;;;;;5143256;27;20482;-68
2022/10/09 02:30:03;;;;;;;26.50;22.37;;;21.60;99.90;;;;;;5128671;27;20484;-68
2022/10/09 02:32:34;;;;;;;25.43;20.67;;;21.40;99.90;;;;;;5132298;27;20957;-69
2022/10/09 02:35:05;;;;;;;26.43;22.43;;;21.30;99.90;;;;;;5130285;27;20471;-68
2022/10/09 02:37:35;;;;;;;26.87;21.30;;;21.20;99.90;;;;;;5133928;27;20490;-69
2022/10/09 02:40:08;;;;;;;23.07;20.27;;;21.20;99.90;;;;;;5128869;27;20461;-69
2022/10/09 02:42:39;;;;;;;28.23;20.73;;;21.10;99.90;;;;;;5141217;27;20513;-69
2022/10/09 02:45:12;;;;;;;30.00;20.97;;;21.00;99.90;;;;;;5135445;27;20478;-69
2022/10/09 02:47:43;;;;;;;25.10;21.60;;;21.00;99.90;;;;;;5139146;27;20479;-68
2022/10/09 02:50:14;;;;;;;27.60;20.60;;;21.00;99.90;;;;;;5144682;27;20987;-70
2022/10/09 02:52:45;;;;;;;26.90;22.00;;;20.90;99.90;;;;;;5144923;27;20484;-69
2022/10/09 02:55:16;;;;;;;29.60;22.83;;;20.90;99.90;;;;;;5130110;27;20453;-69
2022/10/09 02:57:47;;;;;;;26.70;20.90;;;20.90;99.90;;;;;;5130083;27;20446;-69
2022/10/09 03:00:19;;;;;;;26.13;22.40;;;20.90;99.90;;;;;;5124854;27;20446;-70
2022/10/09 03:02:50;;;;;;;26.80;21.87;;;20.90;99.90;;;;;;5112889;27;20441;-67
2022/10/09 03:05:21;;;;;;;27.23;21.43;;;20.80;99.90;;;;;;5125180;27;20465;-67
2022/10/09 03:07:52;;;;;;;24.87;20.43;;;20.80;99.90;;;;;;5140513;27;20949;-68
2022/10/09 03:10:23;;;;;;;29.67;22.13;;;20.70;99.90;;;;;;5145119;27;20468;-68
2022/10/09 03:12:54;;;;;;;26.30;21.37;;;20.60;99.90;;;;;;5124665;27;20836;-67
2022/10/09 03:15:26;;;;;;;28.00;22.07;;;20.50;99.90;;;;;;5121999;27;20453;-70
2022/10/09 03:17:57;;;;;;;28.73;22.63;;;20.50;99.90;;;;;;5143605;27;20506;-66
2022/10/09 03:20:28;;;;;;;27.33;21.33;;;20.40;99.90;;;;;;5130889;27;20468;-69
2022/10/09 03:22:59;;;;;;;30.93;22.37;;;20.30;99.90;;;;;;5143811;27;20501;-69
2022/10/09 03:25:29;;;;;;;24.90;20.50;;;20.30;99.90;;;;;;5144745;27;20535;-70
2022/10/09 03:28:00;;;;;;;26.50;22.00;;;20.10;99.90;;;;;;5143388;27;20484;-68
2022/10/09 03:30:33;;;;;;;31.13;22.97;;;20.00;99.90;;;;;;5144208;27;20487;-68
2022/10/09 03:33:04;;;;;;;25.97;21.30;;;20.00;99.90;;;;;;5143906;27;20444;-66
2022/10/09 03:35:34;;;;;;;28.07;21.83;;;19.90;99.90;;;;;;5142921;27;20462;-66
2022/10/09 03:38:05;;;;;;;27.77;23.30;;;19.80;99.90;;;;;;5144437;27;20436;-66
2022/10/09 03:40:36;;;;;;;26.87;21.60;;;19.70;99.90;;;;;;5143644;27;20441;-65
2022/10/09 03:43:07;;;;;;;31.10;23.70;;;19.70;99.90;;;;;;5140925;27;20550;-69
2022/10/09 03:45:41;;;;;;;27.90;22.33;;;19.70;99.90;;;;;;5129735;27;20860;-69
2022/10/09 03:48:13;;;;;;;31.13;23.97;;;19.60;99.90;;;;;;5110633;27;20456;-68
2022/10/09 03:50:44;;;;;;;28.30;21.80;;;19.60;99.90;;;;;;5143740;27;20476;-67
2022/10/09 03:53:16;;;;;;;28.73;22.70;;;19.60;99.90;;;;;;5137742;27;20436;-66
2022/10/09 03:55:47;;;;;;;25.77;21.90;;;19.60;99.90;;;;;;5143643;27;20510;-66
2022/10/09 03:58:17;;;;;;;26.87;20.93;;;19.50;99.90;;;;;;5116594;27;21002;-66
2022/10/09 04:00:51;;;;;;;29.47;22.47;;;19.50;99.90;;;;;;5143701;27;20973;-66
2022/10/09 04:03:22;;;;;;;29.97;22.40;;;19.50;99.90;;;;;;5134116;27;20539;-66
2022/10/09 04:05:53;;;;;;;26.07;21.80;;;19.40;99.90;;;;;;5126109;27;20416;-67
2022/10/09 04:08:24;;;;;;;27.50;22.77;;;19.30;99.90;;;;;;5139142;27;20420;-68
2022/10/09 04:10:58;;;;;;;28.87;22.80;;;19.30;99.90;;;;;;5124866;27;20522;-68
2022/10/09 04:13:29;;;;;;;25.90;21.60;;;19.30;99.90;;;;;;5143209;27;20490;-69
2022/10/09 04:16:02;;;;;;;28.60;22.43;;;19.20;99.90;;;;;;5137374;27;20489;-70
2022/10/09 04:18:32;;;;;;;31.33;23.83;;;19.10;99.90;;;;;;5122635;27;20445;-66
2022/10/09 04:21:03;;;;;;;28.60;22.63;;;19.00;99.90;;;;;;5135969;27;20458;-68
2022/10/09 04:23:34;;;;;;;27.83;21.10;;;19.00;99.90;;;;;;5138728;27;20617;-69
2022/10/09 04:26:05;;;;;;;30.20;24.23;;;18.90;99.90;;;;;;5125302;27;20432;-67
2022/10/09 04:28:36;;;;;;;27.53;22.00;;;18.90;99.90;;;;;;5123091;28;20458;-69
2022/10/09 04:31:08;;;;;;;31.13;23.67;;;18.80;99.90;;;;;;5138956;27;20484;-69
2022/10/09 04:33:39;;;;;;;29.50;21.87;;;18.90;99.90;;;;;;5142895;27;20418;-69
2022/10/09 04:36:10;;;;;;;34.57;23.40;;;18.90;99.90;;;;;;5130228;27;20572;-68
2022/10/09 04:38:41;;;;;;;28.60;22.87;;;18.80;99.90;;;;;;5135450;27;20453;-67
2022/10/09 04:41:12;;;;;;;33.20;25.27;;;18.70;99.90;;;;;;5134258;27;20481;-67
2022/10/09 04:43:43;;;;;;;32.80;24.40;;;18.70;99.90;;;;;;5124546;27;20427;-67
2022/10/09 04:46:21;;;;;;;31.33;24.00;;;18.70;99.90;;;;;;5112472;28;20453;-67
2022/10/09 04:48:55;;;;;;;28.00;22.80;;;18.70;99.90;;;;;;5138532;27;20927;-68
2022/10/09 04:51:26;;;;;;;29.80;22.63;;;18.60;99.90;;;;;;5143085;27;20961;-68
2022/10/09 04:53:57;;;;;;;30.97;23.90;;;18.60;99.90;;;;;;5134650;27;20824;-67
2022/10/09 04:56:29;;;;;;;30.40;23.70;;;18.50;99.90;;;;;;5142241;27;20837;-68
2022/10/09 04:59:00;;;;;;;32.60;24.00;;;18.50;99.90;;;;;;5143446;27;20415;-68
2022/10/09 05:01:33;;;;;;;31.10;24.17;;;18.40;99.90;;;;;;5131710;28;20456;-67
2022/10/09 05:04:07;;;;;;;30.33;23.50;;;18.30;99.90;;;;;;5135648;27;20458;-68
2022/10/09 05:06:38;;;;;;;29.80;22.77;;;18.30;99.90;;;;;;5120927;27;20988;-67
2022/10/09 05:09:09;;;;;;;30.60;23.87;;;18.30;99.90;;;;;;5128080;28;20899;-68
2022/10/09 05:11:39;;;;;;;33.00;24.37;;;18.20;99.90;;;;;;5134526;27;20463;-68
2022/10/09 05:14:12;;;;;;;31.37;24.23;;;18.20;99.90;;;;;;5128291;28;20540;-68
2022/10/09 05:16:44;;;;;;;31.60;24.10;;;18.10;99.90;;;;;;5110490;27;20459;-68
2022/10/09 05:19:35;;;;;;;32.70;25.07;;;18.10;99.90;;;;;;5139632;27;20852;-68
2022/10/09 05:22:06;;;;;;;32.40;24.43;;;18.00;99.90;;;;;;5136595;27;20453;-68
2022/10/09 05:24:37;;;;;;;32.60;23.27;;;17.90;99.90;;;;;;5133092;27;20516;-68
2022/10/09 05:27:07;;;;;;;29.90;22.77;;;17.90;99.90;;;;;;5116863;27;20464;-68
2022/10/09 05:29:38;;;;;;;33.90;25.30;;;17.80;99.90;;;;;;5144591;27;20435;-69
2022/10/09 05:32:11;;;;;;;40.67;25.47;;;17.80;99.90;;;;;;5143525;27;20515;-68
2022/10/09 05:34:42;;;;;;;31.80;25.80;;;17.90;99.90;;;;;;5144643;27;20467;-68
2022/10/09 05:37:13;;;;;;;32.67;24.30;;;17.80;99.90;;;;;;5127987;27;20425;-68
2022/10/09 05:39:44;;;;;;;34.90;25.80;;;17.80;99.90;;;;;;5114186;27;20425;-69
2022/10/09 05:42:14;;;;;;;33.97;25.97;;;17.80;99.90;;;;;;5140720;27;20457;-68
2022/10/09 05:44:45;;;;;;;43.27;26.60;;;17.80;99.90;;;;;;5141483;27;20436;-68
2022/10/09 05:47:19;;;;;;;34.80;25.60;;;17.70;99.90;;;;;;5120922;27;20442;-68
2022/10/09 05:49:49;;;;;;;33.17;25.57;;;17.60;99.90;;;;;;5126827;27;20459;-68
2022/10/09 05:52:20;;;;;;;35.20;24.37;;;17.60;99.90;;;;;;5113804;27;20478;-67
2022/10/09 05:54:51;;;;;;;33.27;25.03;;;17.50;99.90;;;;;;5139875;27;20457;-67
2022/10/09 05:57:22;;;;;;;36.37;27.07;;;17.50;99.90;;;;;;5142548;27;20964;-68
2022/10/09 05:59:53;;;;;;;36.00;25.80;;;17.40;99.90;;;;;;5138351;27;20461;-68
2022/10/09 06:02:25;;;;;;;33.00;25.10;;;17.40;99.90;;;;;;5124979;27;20470;-68
2022/10/09 06:04:56;;;;;;;34.70;25.80;;;17.30;99.90;;;;;;5112505;27;20445;-68
2022/10/09 06:07:27;;;;;;;37.20;26.80;;;17.20;99.90;;;;;;5115543;27;20584;-68
2022/10/09 06:09:58;;;;;;;34.00;25.80;;;17.30;99.90;;;;;;5119373;27;20515;-68
2022/10/09 06:12:28;;;;;;;37.20;27.20;;;17.20;99.90;;;;;;5143126;27;20521;-68
2022/10/09 06:14:59;;;;;;;40.13;27.93;;;17.10;99.90;;;;;;5133852;27;20485;-68
2022/10/09 06:17:32;;;;;;;34.43;25.93;;;17.10;99.90;;;;;;5146292;27;20456;-68
2022/10/09 06:20:03;;;;;;;38.67;30.57;;;17.10;99.90;;;;;;5146186;27;20449;-67
2022/10/09 06:22:34;;;;;;;35.80;25.90;;;17.10;99.90;;;;;;5132371;27;20627;-68
2022/10/09 06:25:05;;;;;;;34.73;26.33;;;17.20;99.90;;;;;;5133392;27;20454;-68
2022/10/09 06:27:36;;;;;;;38.57;28.87;;;17.10;99.90;;;;;;5137769;27;20484;-68
2022/10/09 06:30:08;;;;;;;36.00;26.57;;;17.00;99.90;;;;;;5142329;27;20469;-67
2022/10/09 06:32:40;;;;;;;35.97;26.60;;;17.10;99.90;;;;;;5131811;27;21258;-68
2022/10/09 06:35:11;;;;;;;44.60;29.20;;;17.00;99.90;;;;;;5116877;27;20433;-67
2022/10/09 06:37:42;;;;;;;28.27;25.07;;;17.00;99.90;;;;;;5109377;27;20791;-68
2022/10/09 06:40:12;;;;;;;31.80;24.90;;;17.00;99.90;;;;;;5116607;27;20461;-68
2022/10/09 06:42:43;;;;;;;29.53;25.40;;;17.00;99.90;;;;;;5132945;27;20452;-67
2022/10/09 06:45:14;;;;;;;33.63;24.60;;;16.90;99.90;;;;;;5124776;27;20444;-68
2022/10/09 06:47:47;;;;;;;35.77;23.67;;;16.90;99.90;;;;;;5126912;27;20482;-68
2022/10/09 06:50:17;;;;;;;30.47;24.90;;;16.90;99.90;;;;;;5130977;27;20478;-67
2022/10/09 06:52:48;;;;;;;34.90;23.90;;;16.90;99.90;;;;;;5118170;27;20490;-68
2022/10/09 06:55:19;;;;;;;30.53;22.67;;;16.90;99.90;;;;;;5108326;27;20486;-68
2022/10/09 06:57:56;;;;;;;29.13;22.97;;;16.80;99.90;;;;;;5110384;27;20454;-68
2022/10/09 07:00:27;;;;;;;27.63;22.10;;;16.90;99.90;;;;;;5117393;27;20513;-68
2022/10/09 07:02:59;;;;;;;31.53;24.20;;;16.80;99.90;;;;;;5128996;27;20451;-67
2022/10/09 07:05:30;;;;;;;32.83;23.10;;;16.70;99.90;;;;;;5119285;27;20459;-67
2022/10/09 07:08:01;;;;;;;32.03;23.50;;;16.60;99.90;;;;;;5120426;27;20567;-68
2022/10/09 07:10:32;;;;;;;33.00;23.40;;;16.60;99.90;;;;;;5132058;27;22283;-68
2022/10/09 07:13:02;;;;;;;30.10;22.90;;;16.60;99.90;;;;;;5142512;27;20492;-68
2022/10/09 07:15:33;;;;;;;34.37;24.60;;;16.60;99.90;;;;;;5136257;27;20578;-67
2022/10/09 07:18:06;;;;;;;33.73;22.10;;;16.50;99.90;;;;;;5125560;27;20516;-68
2022/10/09 07:20:37;;;;;;;27.93;21.90;;;16.50;99.90;;;;;;5137707;27;20492;-68
2022/10/09 07:23:08;;;;;;;31.00;22.90;;;16.40;99.90;;;;;;5118693;27;20455;-68
2022/10/09 07:25:42;;;;;;;31.80;22.07;;;16.40;99.90;;;;;;5130360;27;20469;-67
2022/10/09 07:28:13;;;;;;;25.30;19.50;;;16.40;99.90;;;;;;5127844;27;20545;-68
2022/10/09 07:30:43;;;;;;;29.00;20.33;;;16.30;99.90;;;;;;5139373;27;20524;-68
2022/10/09 07:33:16;;;;;;;31.43;23.00;;;16.30;99.90;;;;;;5137979;27;20559;-68
2022/10/09 07:35:55;;;;;;;31.00;21.70;;;16.20;99.90;;;;;;5126227;27;20602;-68
2022/10/09 07:38:26;;;;;;;33.27;22.17;;;16.20;99.90;;;;;;5132548;27;20505;-68
2022/10/09 07:41:01;;;;;;;29.87;22.33;;;16.20;99.90;;;;;;5124287;27;20892;-68
2022/10/09 07:43:32;;;;;;;31.20;23.33;;;16.20;99.90;;;;;;5135821;27;20468;-67
2022/10/09 07:46:03;;;;;;;28.23;20.57;;;16.10;99.90;;;;;;5111745;27;20920;-68
2022/10/09 07:48:36;;;;;;;30.97;21.63;;;16.10;99.90;;;;;;5138117;27;20472;-68
2022/10/09 07:51:11;;;;;;;27.70;21.07;;;16.10;99.90;;;;;;5135129;27;20517;-68
2022/10/09 07:53:42;;;;;;;29.03;21.73;;;16.10;99.90;;;;;;5132652;27;20461;-68
2022/10/09 07:56:15;;;;;;;28.43;20.80;;;16.00;99.90;;;;;;5114860;27;20501;-67
2022/10/09 07:58:50;;;;;;;25.83;21.27;;;16.00;99.90;;;;;;5128508;27;20483;-68
2022/10/09 08:01:22;;;;;;;28.47;21.27;;;16.00;99.90;;;;;;5121738;27;20458;-68
2022/10/09 08:03:54;;;;;;;32.37;22.07;;;16.00;99.90;;;;;;5131012;27;20458;-68
2022/10/09 08:06:25;;;;;;;30.60;22.70;;;15.90;99.90;;;;;;5121883;27;21061;-67
2022/10/09 08:08:57;;;;;;;39.83;27.73;;;15.80;99.90;;;;;;5126310;27;20478;-67
2022/10/09 08:11:28;;;;;;;48.40;34.10;;;15.70;99.90;;;;;;5126844;27;20486;-67
2022/10/09 08:13:59;;;;;;;41.90;30.40;;;15.70;99.90;;;;;;5137154;27;20448;-68
2022/10/09 08:16:32;;;;;;;53.00;34.50;;;15.60;99.90;;;;;;5117775;27;20482;-68
2022/10/09 08:19:05;;;;;;;51.50;36.30;;;15.60;99.90;;;;;;5133521;27;20475;-68
2022/10/09 08:21:35;;;;;;;55.73;36.97;;;15.60;99.90;;;;;;5131755;27;20878;-67
2022/10/09 08:24:07;;;;;;;56.93;38.00;;;15.60;99.90;;;;;;5134524;27;20529;-67
2022/10/09 08:26:38;;;;;;;56.10;38.10;;;15.50;99.90;;;;;;5128113;27;20495;-67
2022/10/09 08:29:09;;;;;;;46.33;35.73;;;15.50;99.90;;;;;;5135692;27;20502;-67
2022/10/09 08:31:41;;;;;;;51.63;36.30;;;15.50;99.90;;;;;;5129976;27;20472;-68
2022/10/09 08:34:13;;;;;;;46.97;31.27;;;15.40;99.90;;;;;;5116830;27;20470;-67
2022/10/09 08:36:44;;;;;;;44.27;32.53;;;15.30;99.90;;;;;;5109409;27;20463;-68
2022/10/09 08:39:16;;;;;;;48.13;31.03;;;15.30;99.90;;;;;;5124472;27;20458;-67
2022/10/09 08:41:49;;;;;;;40.37;30.63;;;15.30;99.90;;;;;;5125886;27;20499;-67
2022/10/09 08:44:22;;;;;;;45.67;30.43;;;15.30;99.90;;;;;;5132104;27;20963;-67
2022/10/09 08:47:01;;;;;;;41.97;28.70;;;15.30;99.90;;;;;;5123219;27;20517;-67
2022/10/09 08:49:39;;;;;;;41.47;29.07;;;15.30;99.90;;;;;;5129265;27;20478;-67
2022/10/09 08:52:24;;;;;;;46.50;27.30;;;15.30;99.90;;;;;;5136400;27;20529;-68
2022/10/09 08:55:00;;;;;;;37.80;25.60;;;15.20;99.90;;;;;;5108885;28;20458;-67
2022/10/09 08:57:35;;;;;;;35.27;25.57;;;15.10;99.90;;;;;;5130714;27;20463;-68
2022/10/09 09:00:14;;;;;;;35.47;27.00;;;15.10;99.90;;;;;;5132649;27;20482;-67
2022/10/09 09:03:18;;;;;;;39.00;26.30;;;15.10;99.90;;;;;;5129559;27;20464;-67
2022/10/09 09:05:58;;;;;;;31.27;23.70;;;15.00;99.90;;;;;;5132265;28;20444;-68
2022/10/09 09:08:36;;;;;;;34.67;23.80;;;15.00;99.90;;;;;;5133474;28;20543;-68
2022/10/09 09:11:20;;;;;;;31.13;23.70;;;14.90;99.90;;;;;;5128229;27;20456;-67
2022/10/09 09:14:03;;;;;;;30.57;22.90;;;14.90;99.90;;;;;;5126302;28;20524;-67
2022/10/09 09:16:41;;;;;;;40.60;26.17;;;14.90;99.90;;;;;;5131835;28;20445;-67
2022/10/09 09:19:34;;;;;;;34.60;23.63;;;14.90;99.90;;;;;;5123553;28;20452;-67
2022/10/09 09:22:10;;;;;;;34.73;25.40;;;14.80;99.90;;;;;;5115135;28;20450;-67
2022/10/09 09:24:45;;;;;;;30.23;23.73;;;14.80;99.90;;;;;;5109756;28;20431;-67
2022/10/09 09:27:19;;;;;;;35.17;23.17;;;14.80;99.90;;;;;;5132704;27;20457;-67
2022/10/09 09:29:56;;;;;;;36.53;24.57;;;14.70;99.90;;;;;;5118458;28;20519;-67
2022/10/09 09:32:30;;;;;;;35.20;22.47;;;14.70;99.90;;;;;;5131147;28;20506;-67
2022/10/09 09:35:12;;;;;;;31.97;23.83;;;14.70;99.90;;;;;;5117596;27;20519;-67
2022/10/09 09:37:45;;;;;;;35.87;23.90;;;14.70;99.90;;;;;;5133539;28;20501;-67
2022/10/09 09:40:16;;;;;;;36.37;23.80;;;14.60;99.90;;;;;;5119743;28;20471;-67
2022/10/09 09:43:17;;;;;;;33.53;23.50;;;14.60;99.90;;;;;;5136827;28;20493;-68
2022/10/09 09:45:49;;;;;;;30.77;21.00;;;14.60;99.90;;;;;;5128894;27;20461;-67
2022/10/09 09:48:28;;;;;;;33.17;22.57;;;14.60;99.90;;;;;;5126574;27;20530;-68
2022/10/09 09:51:01;;;;;;;30.00;22.13;;;14.60;99.90;;;;;;5118901;28;20539;-67
2022/10/09 09:53:56;;;;;;;32.17;22.47;;;14.60;99.90;;;;;;5115660;28;20537;-67
2022/10/09 09:56:36;;;;;;;31.20;21.40;;;14.50;99.90;;;;;;5127315;28;20532;-67
2022/10/09 09:59:32;;;;;;;32.40;22.27;;;14.50;99.90;;;;;;5116663;28;20504;-67
2022/10/09 10:02:11;;;;;;;31.70;22.80;;;14.50;99.90;;;;;;5129819;27;20457;-67
2022/10/09 10:04:51;;;;;;;30.03;22.17;;;14.50;99.90;;;;;;5129093;27;20464;-67
2022/10/09 10:07:30;;;;;;;31.53;22.77;;;14.50;99.90;;;;;;5122211;27;20493;-67
2022/10/09 10:10:16;;;;;;;29.40;20.90;;;14.40;99.90;;;;;;5133587;27;20460;-67
2022/10/09 10:12:57;;;;;;;36.03;22.60;;;14.30;99.90;;;;;;5139978;27;20607;-68
2022/10/09 10:15:30;;;;;;;27.13;22.27;;;14.40;99.90;;;;;;5133174;27;20469;-67
2022/10/09 10:18:03;;;;;;;33.83;22.33;;;14.30;99.90;;;;;;5132518;27;20473;-67
2022/10/09 10:20:43;;;;;;;30.03;20.30;;;14.30;99.90;;;;;;5136556;27;20449;-67
2022/10/09 10:23:26;;;;;;;31.60;22.60;;;14.30;99.90;;;;;;5133392;27;20499;-67
2022/10/09 10:26:01;;;;;;;28.40;20.77;;;14.20;99.90;;;;;;5125145;27;20514;-67
2022/10/09 10:28:38;;;;;;;28.67;20.77;;;14.20;99.90;;;;;;5118348;27;20894;-67
2022/10/09 10:31:18;;;;;;;29.10;20.43;;;14.10;99.90;;;;;;5134099;27;20539;-67
2022/10/09 10:33:55;;;;;;;28.37;20.37;;;14.20;99.90;;;;;;5139206;27;20499;-67
2022/10/09 10:36:27;;;;;;;27.03;20.37;;;14.20;99.90;;;;;;5128156;27;20477;-67
2022/10/09 10:39:07;;;;;;;28.00;20.90;;;14.10;99.90;;;;;;5138774;27;20460;-68
2022/10/09 10:41:46;;;;;;;29.10;20.93;;;14.10;99.90;;;;;;5126435;27;20471;-67
2022/10/09 10:44:23;;;;;;;28.57;21.13;;;14.10;99.90;;;;;;5134284;27;20457;-67
2022/10/09 10:47:00;;;;;;;28.73;20.43;;;14.00;99.90;;;;;;5141974;27;20882;-68
2022/10/09 10:49:31;;;;;;;28.90;21.07;;;14.00;99.90;;;;;;5115566;27;20523;-68
2022/10/09 10:52:16;;;;;;;28.37;20.50;;;14.00;99.90;;;;;;5132645;27;20480;-67
2022/10/09 10:54:55;;;;;;;30.97;20.90;;;14.00;99.90;;;;;;5122527;27;20492;-68
2022/10/09 10:57:33;;;;;;;30.97;21.17;;;14.00;99.90;;;;;;5140103;27;20464;-67
2022/10/09 11:00:08;;;;;;;28.77;21.13;;;14.00;99.90;;;;;;5131630;27;20454;-67
2022/10/09 11:03:07;;;;;;;32.33;21.30;;;13.90;99.90;;;;;;5113051;27;20498;-68
2022/10/09 11:05:47;;;;;;;29.17;21.00;;;13.80;99.90;;;;;;5120145;27;20461;-67
2022/10/09 11:08:32;;;;;;;26.37;20.17;;;13.90;99.90;;;;;;5113816;27;20928;-67
2022/10/09 11:11:09;;;;;;;25.90;19.57;;;13.80;99.90;;;;;;5120481;27;20457;-67
2022/10/09 11:13:51;;;;;;;29.20;20.30;;;13.70;99.90;;;;;;5121730;27;20494;-67
2022/10/09 11:16:39;;;;;;;31.17;21.23;;;13.80;99.90;;;;;;5125732;27;20497;-67
2022/10/09 11:19:28;;;;;;;29.17;21.50;;;13.70;99.90;;;;;;5132365;27;20529;-67
2022/10/09 11:22:06;;;;;;;33.60;20.10;;;13.70;99.90;;;;;;5128898;27;20458;-67
2022/10/09 11:24:59;;;;;;;27.73;20.43;;;13.60;99.90;;;;;;5126367;27;20577;-67
2022/10/09 11:27:38;;;;;;;30.87;19.70;;;13.70;99.90;;;;;;5130740;27;20513;-67
2022/10/09 11:30:14;;;;;;;27.87;20.67;;;13.60;99.90;;;;;;5140115;27;20449;-67
2022/10/09 11:32:56;;;;;;;25.47;20.10;;;13.60;99.90;;;;;;5139991;27;20466;-67
2022/10/09 11:35:30;;;;;;;35.27;22.70;;;13.60;99.90;;;;;;5121607;27;20550;-68
2022/10/09 11:38:03;;;;;;;29.57;19.60;;;13.60;99.90;;;;;;5131332;27;22001;-67
2022/10/09 11:40:42;;;;;;;31.50;19.60;;;13.60;99.90;;;;;;5119483;27;20464;-67
2022/10/09 11:43:22;;;;;;;30.77;21.50;;;13.60;99.90;;;;;;5138179;27;20464;-67
2022/10/09 11:46:00;;;;;;;30.20;21.40;;;13.60;99.90;;;;;;5133823;27;20457;-67
2022/10/09 11:48:43;;;;;;;28.77;20.50;;;13.60;99.90;;;;;;5111796;27;20799;-67
2022/10/09 11:51:20;;;;;;;30.57;20.47;;;13.60;99.90;;;;;;5126306;27;20441;-67
2022/10/09 11:53:52;;;;;;;27.10;20.00;;;13.70;99.90;;;;;;5144371;27;20487;-67
2022/10/09 11:56:25;;;;;;;27.57;18.97;;;13.70;99.90;;;;;;5142556;27;20572;-68
2022/10/09 11:59:00;;;;;;;29.33;21.17;;;13.60;99.90;;;;;;5143901;27;20459;-67
2022/10/09 12:01:35;;;;;;;29.47;20.73;;;13.60;99.90;;;;;;5144057;27;20593;-67
2022/10/09 12:04:09;;;;;;;29.57;20.27;;;13.60;99.90;;;;;;5143877;27;20610;-67
2022/10/09 12:06:51;;;;;;;26.47;19.70;;;13.50;99.90;;;;;;5136856;27;20480;-67
2022/10/09 12:09:27;;;;;;;26.43;18.90;;;13.50;99.90;;;;;;5143735;27;20475;-67
2022/10/09 12:12:01;;;;;;;26.20;19.20;;;13.50;99.90;;;;;;5143143;27;20452;-67
2022/10/09 12:14:32;;;;;;;25.30;18.60;;;13.40;99.90;;;;;;5143490;27;20488;-67
2022/10/09 12:17:17;;;;;;;27.60;20.93;;;13.40;99.90;;;;;;5137806;27;20494;-67
2022/10/09 12:19:50;;;;;;;31.80;21.97;;;13.40;99.90;;;;;;5133090;27;20517;-67
2022/10/09 12:22:27;;;;;;;26.67;20.67;;;13.30;99.90;;;;;;5132381;27;20969;-67
2022/10/09 12:25:04;;;;;;;25.07;18.60;;;13.30;99.90;;;;;;5133272;27;20543;-67
2022/10/09 12:27:38;;;;;;;29.00;19.57;;;13.30;99.90;;;;;;5128316;27;20505;-67
2022/10/09 12:30:21;;;;;;;25.47;18.87;;;13.30;99.90;;;;;;5135742;27;20529;-66
2022/10/09 12:32:59;;;;;;;28.87;19.60;;;13.20;99.90;;;;;;5111224;27;20515;-67
2022/10/09 12:35:34;;;;;;;26.57;20.03;;;13.20;99.90;;;;;;5125261;27;20632;-67
2022/10/09 12:38:17;;;;;;;32.23;22.40;;;13.20;99.90;;;;;;5134854;27;20954;-67
2022/10/09 12:40:49;;;;;;;24.60;18.00;;;13.20;99.90;;;;;;5121112;27;20524;-66
2022/10/09 12:43:23;;;;;;;29.93;19.23;;;13.10;99.90;;;;;;5128884;27;20460;-67
2022/10/09 12:45:55;;;;;;;30.20;19.97;;;13.10;99.90;;;;;;5123592;27;20465;-67
2022/10/09 12:48:29;;;;;;;25.03;18.50;;;13.10;99.90;;;;;;5137305;27;20496;-67
2022/10/09 12:50:59;;;;;;;28.90;20.93;;;13.10;99.90;;;;;;5141849;27;20465;-67
2022/10/09 12:53:30;;;;;;;25.50;18.07;;;13.10;99.90;;;;;;5139010;27;20568;-67
2022/10/09 12:56:02;;;;;;;27.60;19.20;;;13.10;99.90;;;;;;5139663;27;20541;-67
2022/10/09 12:58:35;;;;;;;30.17;20.77;;;13.00;99.90;;;;;;5136924;27;20515;-67
2022/10/09 13:01:11;;;;;;;28.27;19.30;;;13.00;99.90;;;;;;5131083;27;20456;-67
2022/10/09 13:03:53;;;;;;;25.67;18.80;;;13.00;99.90;;;;;;5125286;28;20456;-67